Time;durP1;ratioP1;P1;durP2;ratioP2;P2;SDS_P1;SDS_P2;PMS_P1;PMS_P2;Temp;Humidity;BMP_temperature;BMP_pressure;BME280_temperature;BME280_humidity;BME280_pressure;Samples;Min_cycle;Max_cycle;Signal;HPM_P1;HPM_P2
2022/11/25 00:00:50;;;;;;;4.97;3.22;;;;;;;6.17;63.44;94415.84;4148544;28;20057;-50
2022/11/25 00:02:51;;;;;;;3.88;2.75;;;;;;;6.24;63.63;94413.50;4160688;28;20119;-52
2022/11/25 00:04:53;;;;;;;4.22;3.00;;;;;;;6.32;63.09;94417.06;4150086;28;20128;-54
2022/11/25 00:06:55;;;;;;;5.22;2.60;;;;;;;6.21;63.50;94421.59;4158388;28;20053;-54
2022/11/25 00:09:02;;;;;;;3.28;2.50;;;;;;;6.21;63.63;94421.59;4159643;28;20064;-54
2022/11/25 00:11:04;;;;;;;4.15;2.80;;;;;;;6.23;63.80;94430.09;4151690;28;20049;-53
2022/11/25 00:13:06;;;;;;;4.70;3.05;;;;;;;6.27;63.07;94428.84;4155134;28;20450;-56
2022/11/25 00:15:08;;;;;;;5.03;2.97;;;;;;;6.34;62.56;94437.72;4144700;28;20309;-54
2022/11/25 00:17:09;;;;;;;3.00;2.40;;;;;;;6.26;62.85;94430.63;4150441;28;20088;-51
2022/11/25 00:19:11;;;;;;;3.50;2.88;;;;;;;6.24;62.92;94432.56;4160307;28;20501;-52
2022/11/25 00:21:15;;;;;;;5.57;2.70;;;;;;;6.27;62.63;94444.47;4160217;28;20091;-50
2022/11/25 00:23:17;;;;;;;4.18;2.88;;;;;;;6.36;62.77;94438.41;4147137;28;20053;-53
2022/11/25 00:25:18;;;;;;;5.50;2.80;;;;;;;6.27;62.75;94436.66;4160390;28;20050;-53
2022/11/25 00:27:20;;;;;;;4.00;3.47;;;;;;;6.30;63.05;94437.19;4156510;28;20104;-51
2022/11/25 00:29:22;;;;;;;5.30;3.10;;;;;;;6.27;63.03;94439.25;4167904;28;20055;-55
2022/11/25 00:31:28;;;;;;;4.30;3.33;;;;;;;6.24;63.21;94439.50;4163792;28;20046;-51
2022/11/25 00:33:30;;;;;;;4.75;3.63;;;;;;;6.21;63.35;94438.00;4158491;28;20049;-51
2022/11/25 00:35:34;;;;;;;5.90;3.45;;;;;;;6.27;63.16;94439.25;4153430;28;20064;-50
2022/11/25 00:37:36;;;;;;;5.25;3.65;;;;;;;6.15;63.49;94436.81;4154642;28;20460;-54
2022/11/25 00:39:37;;;;;;;4.57;3.60;;;;;;;6.02;64.03;94449.25;4147489;28;20054;-54
2022/11/25 00:46:19;;;;;;;4.97;3.50;;;;;;;6.07;64.81;94446.25;4163292;28;20132;-56
2022/11/25 00:48:21;;;;;;;8.10;3.88;;;;;;;6.03;64.85;94432.72;4164844;28;20112;-50
2022/11/25 00:50:23;;;;;;;5.68;3.97;;;;;;;6.02;64.72;94428.44;4166168;28;20116;-54
2022/11/25 00:52:25;;;;;;;5.18;3.78;;;;;;;6.03;64.66;94430.09;4169826;28;20049;-54
2022/11/25 00:54:27;;;;;;;4.85;3.63;;;;;;;5.99;64.70;94436.53;4163847;28;20051;-54
2022/11/25 00:56:29;;;;;;;5.22;3.72;;;;;;;5.99;64.88;94430.53;4154421;28;20498;-52
2022/11/25 00:58:30;;;;;;;5.57;3.25;;;;;;;6.05;64.25;94429.97;4167259;28;20097;-56
2022/11/25 01:00:32;;;;;;;6.93;3.58;;;;;;;6.10;64.18;94449.38;4161764;28;20054;-54
2022/11/25 01:02:34;;;;;;;5.70;3.30;;;;;;;6.08;64.26;94438.31;4167810;28;20077;-54
2022/11/25 01:04:36;;;;;;;6.82;4.13;;;;;;;6.05;64.64;94441.19;4163760;28;20055;-52
2022/11/25 01:06:38;;;;;;;5.20;3.83;;;;;;;6.02;64.70;94441.44;4166761;28;20048;-53
2022/11/25 01:08:39;;;;;;;4.68;3.60;;;;;;;6.10;64.04;94438.97;4166804;28;20137;-54
2022/11/25 01:10:41;;;;;;;4.53;3.65;;;;;;;6.21;64.31;94434.59;4163101;28;20144;-54
2022/11/25 01:12:46;;;;;;;5.00;3.25;;;;;;;6.21;64.21;94442.41;4173614;28;20041;-53
2022/11/25 01:14:47;;;;;;;4.57;3.40;;;;;;;6.17;64.08;94436.66;4167883;28;20076;-54
2022/11/25 01:16:50;;;;;;;4.35;3.30;;;;;;;6.21;64.27;94432.00;4165746;28;20068;-56
2022/11/25 01:18:52;;;;;;;4.55;3.58;;;;;;;6.22;64.14;94431.06;4172382;28;20075;-56
2022/11/25 01:20:53;;;;;;;4.80;3.47;;;;;;;6.18;64.20;94434.88;4168760;28;20084;-53
2022/11/25 01:22:55;;;;;;;5.00;3.50;;;;;;;6.14;64.48;94434.34;4173136;28;20053;-55
2022/11/25 01:24:57;;;;;;;5.70;3.33;;;;;;;6.19;63.94;94428.72;4166270;28;20108;-56
2022/11/25 01:26:59;;;;;;;4.65;3.13;;;;;;;6.14;63.96;94435.16;4166302;28;20060;-56
2022/11/25 01:29:03;;;;;;;4.75;3.42;;;;;;;6.14;64.28;94422.16;4154566;28;20112;-56
2022/11/25 01:31:11;;;;;;;4.55;3.13;;;;;;;6.22;63.54;94425.84;4166237;28;20052;-55
2022/11/25 01:33:13;;;;;;;4.28;3.20;;;;;;;6.27;63.77;94428.84;4178503;28;20053;-56
2022/11/25 01:35:15;;;;;;;5.50;3.22;;;;;;;6.34;63.73;94422.13;4173782;28;20107;-54
2022/11/25 01:37:16;;;;;;;6.57;2.90;;;;;;;6.33;63.55;94421.31;4162634;28;20049;-55
2022/11/25 01:39:21;;;;;;;3.40;2.83;;;;;;;6.39;62.76;94412.13;4146356;28;20056;-58
2022/11/25 01:41:31;;;;;;;4.53;2.88;;;;;;;6.33;62.90;94410.09;4157509;28;20120;-56
2022/11/25 01:43:33;;;;;;;;;;;;;;;6.32;62.66;94411.88;4172241;28;20122;-54
2022/11/25 01:45:36;;;;;;;4.53;2.58;;;;;;;6.38;62.38;94401.84;4151330;28;20479;-51
2022/11/25 01:47:38;;;;;;;3.45;2.33;;;;;;;6.35;62.39;94395.16;4153302;28;20059;-53
2022/11/25 01:49:46;;;;;;;2.97;2.38;;;;;;;6.34;62.09;94393.50;4156800;28;20049;-57
2022/11/25 01:52:02;;;;;;;4.15;2.33;;;;;;;6.41;61.94;94388.53;4154148;28;20045;-52
2022/11/25 01:54:04;;;;;;;3.10;2.30;;;;;;;6.48;61.58;94400.06;4174356;28;20052;-54
2022/11/25 01:56:06;;;;;;;3.22;2.75;;;;;;;6.48;61.49;94393.06;4178355;28;20073;-56
2022/11/25 01:58:12;;;;;;;3.10;2.60;;;;;;;6.40;61.45;94392.94;4161003;28;20053;-56
2022/11/25 02:00:14;;;;;;;3.58;2.55;;;;;;;6.48;61.25;94387.84;4156602;28;20060;-56
2022/11/25 02:02:17;;;;;;;5.30;2.58;;;;;;;6.50;60.92;94392.94;4161716;28;20493;-54
2022/11/25 02:04:19;;;;;;;3.90;2.60;;;;;;;6.46;61.05;94408.00;4155672;28;20045;-53
2022/11/25 02:06:31;;;;;;;3.35;2.65;;;;;;;6.47;61.13;94407.00;4160647;28;20498;-54
2022/11/25 02:08:33;;;;;;;3.67;2.70;;;;;;;6.55;60.98;94408.94;4159684;28;20128;-58
2022/11/25 02:10:35;;;;;;;3.03;2.45;;;;;;;6.54;60.77;94412.50;4163356;28;20383;-58
2022/11/25 02:12:38;;;;;;;3.00;2.33;;;;;;;6.40;61.25;94407.75;4157400;28;20413;-56
2022/11/25 02:14:40;;;;;;;3.33;2.22;;;;;;;6.44;60.99;94409.91;4159850;28;20057;-54
2022/11/25 02:16:42;;;;;;;3.63;2.50;;;;;;;6.42;60.62;94401.44;4166630;28;20568;-53
2022/11/25 02:18:44;;;;;;;3.08;2.10;;;;;;;6.41;60.97;94415.41;4154024;28;20467;-57
2022/11/25 02:20:46;;;;;;;3.78;2.53;;;;;;;6.34;60.66;94422.94;4158280;28;20429;-57
2022/11/25 02:22:50;;;;;;;3.75;2.25;;;;;;;6.46;60.79;94414.97;4149362;28;20069;-51
2022/11/25 02:24:57;;;;;;;4.10;2.72;;;;;;;6.47;60.41;94409.63;4144796;28;20490;-57
2022/11/25 02:26:59;;;;;;;3.95;2.45;;;;;;;6.40;60.74;94415.53;4157480;28;20657;-54
2022/11/25 02:29:00;;;;;;;5.60;2.25;;;;;;;6.37;60.41;94416.66;4157786;28;20049;-56
2022/11/25 02:31:02;;;;;;;3.10;2.17;;;;;;;6.39;60.55;94422.53;4157925;28;20052;-56
2022/11/25 02:33:05;;;;;;;3.13;2.28;;;;;;;6.32;60.34;94411.03;4168976;28;20458;-55
2022/11/25 02:35:43;;;;;;;4.73;2.37;;;;;;;6.33;60.03;94412.69;4174651;28;20484;-55
2022/11/25 02:37:44;;;;;;;3.67;2.28;;;;;;;6.27;60.55;94414.06;4173554;28;20053;-58
2022/11/25 02:39:47;;;;;;;3.33;2.10;;;;;;;6.31;60.41;94419.81;4158727;28;20227;-55
2022/11/25 02:41:52;;;;;;;3.92;2.17;;;;;;;6.32;60.68;94414.47;4164141;28;20083;-55
2022/11/25 02:43:53;;;;;;;7.70;2.50;;;;;;;6.35;60.05;94421.16;4160309;28;20468;-54
2022/11/25 02:46:02;;;;;;;4.45;2.58;;;;;;;6.34;60.36;94427.31;4177737;28;20049;-51
2022/11/25 02:48:04;;;;;;;4.15;2.15;;;;;;;6.33;60.28;94423.91;4161580;28;20052;-56
2022/11/25 02:50:06;;;;;;;4.63;2.45;;;;;;;6.30;60.01;94426.78;4156019;28;20145;-53
2022/11/25 02:52:08;;;;;;;4.25;2.42;;;;;;;6.24;60.28;94422.16;4171363;28;20136;-54
2022/11/25 02:54:11;;;;;;;5.78;2.17;;;;;;;6.28;60.48;94426.13;4169902;28;20085;-55
2022/11/25 02:56:15;;;;;;;3.55;2.30;;;;;;;6.27;60.48;94445.28;4174841;28;20599;-55
2022/11/25 02:58:16;;;;;;;3.67;2.60;;;;;;;6.12;61.27;94446.66;4173221;28;20057;-54
2022/11/25 03:00:18;;;;;;;3.65;2.60;;;;;;;6.13;61.42;94430.91;4163162;28;20081;-54
2022/11/25 03:02:20;;;;;;;4.82;2.55;;;;;;;6.21;61.43;94432.81;4172296;28;20049;-56
2022/11/25 03:04:23;;;;;;;5.55;2.35;;;;;;;6.12;61.15;94444.88;4147482;28;20060;-53
2022/11/25 03:06:25;;;;;;;4.18;2.45;;;;;;;6.13;61.94;94437.88;4146811;28;20565;-54
2022/11/25 03:08:27;;;;;;;3.28;2.38;;;;;;;6.08;61.47;94440.91;4166193;28;20446;-54
2022/11/25 03:10:29;;;;;;;4.20;2.33;;;;;;;6.10;61.90;94453.78;4174043;28;20057;-56
2022/11/25 03:12:31;;;;;;;4.03;2.70;;;;;;;6.04;62.46;94441.31;4170171;28;20118;-57
2022/11/25 03:14:33;;;;;;;3.90;2.70;;;;;;;6.03;62.49;94453.50;4175269;28;20048;-54
2022/11/25 03:16:35;;;;;;;2.78;2.40;;;;;;;6.06;62.50;94442.00;4177177;28;20465;-55
2022/11/25 03:18:36;;;;;;;4.28;2.50;;;;;;;6.07;62.44;94452.28;4166985;28;20095;-56
2022/11/25 03:20:38;;;;;;;4.35;2.95;;;;;;;6.18;62.38;94447.91;4173371;28;20480;-56
2022/11/25 03:22:41;;;;;;;3.55;2.58;;;;;;;6.18;62.12;94448.72;4177205;28;20072;-55
2022/11/25 03:24:43;;;;;;;4.30;3.00;;;;;;;6.14;62.38;94439.53;4162690;28;20049;-54
2022/11/25 03:26:45;;;;;;;5.68;3.05;;;;;;;6.09;63.13;94458.16;4165563;28;20064;-60
2022/11/25 03:28:46;;;;;;;6.10;3.50;;;;;;;6.14;63.30;94455.97;4174639;28;20138;-53
2022/11/25 03:30:48;;;;;;;5.53;3.33;;;;;;;6.14;63.58;94450.75;4171063;28;20129;-52
2022/11/25 03:32:50;;;;;;;3.92;3.05;;;;;;;6.14;63.72;94458.56;4168002;28;20087;-56
2022/11/25 03:34:51;;;;;;;4.75;3.17;;;;;;;6.12;63.61;94457.06;4164342;28;20525;-57
2022/11/25 03:36:53;;;;;;;5.25;3.35;;;;;;;6.10;64.23;94467.59;4175123;28;20489;-57
2022/11/25 03:38:55;;;;;;;5.70;3.50;;;;;;;6.00;64.66;94460.75;4155474;28;20067;-56
2022/11/25 03:40:56;;;;;;;5.22;3.45;;;;;;;5.87;65.44;94464.44;4164073;28;20447;-57
2022/11/25 03:42:58;;;;;;;5.63;3.30;;;;;;;5.83;65.74;94464.81;4176326;28;20188;-57
2022/11/25 03:45:00;;;;;;;4.57;3.30;;;;;;;5.83;66.13;94477.81;4176122;28;20107;-55
2022/11/25 03:47:02;;;;;;;4.60;3.88;;;;;;;5.83;66.07;94470.00;4176708;28;20151;-55
2022/11/25 03:49:04;;;;;;;4.32;3.20;;;;;;;5.79;66.49;94468.66;4176607;28;20103;-52
2022/11/25 03:51:06;;;;;;;4.10;2.97;;;;;;;5.81;66.28;94458.94;4176992;28;20076;-55
2022/11/25 03:53:08;;;;;;;4.68;3.10;;;;;;;5.75;66.76;94474.13;4176313;28;20565;-56
2022/11/25 03:55:11;;;;;;;3.95;2.92;;;;;;;5.84;66.71;94480.28;4151099;28;20059;-57
2022/11/25 03:57:13;;;;;;;;;;;;;;;5.83;66.19;94465.66;4177278;28;20114;-55
2022/11/25 03:59:15;;;;;;;4.05;2.72;;;;;;;5.84;66.54;94479.47;4175228;28;20099;-57
2022/11/25 04:01:16;;;;;;;3.55;2.80;;;;;;;5.81;66.66;94495.31;4162988;28;20087;-55
2022/11/25 04:03:18;;;;;;;3.88;2.80;;;;;;;5.78;66.88;94498.19;4176165;28;20052;-53
2022/11/25 04:05:20;;;;;;;3.22;2.30;;;;;;;5.75;66.73;94494.91;4176976;28;20526;-56
2022/11/25 04:07:21;;;;;;;3.83;2.47;;;;;;;5.81;66.43;94503.97;4176540;28;20148;-57
2022/11/25 04:09:24;;;;;;;3.47;2.67;;;;;;;5.80;66.28;94499.69;4175467;28;20065;-53
2022/11/25 04:12:45;;;;;;;3.13;2.45;;;;;;;5.88;66.22;94501.66;4172454;28;20107;-55
2022/11/25 04:13:47;;;;;;;3.15;2.40;;;;;;;5.88;66.17;94501.66;4174615;28;20501;-54
2022/11/25 04:15:49;;;;;;;3.13;2.28;;;;;;;5.84;65.82;94502.88;4176009;28;20139;-55
2022/11/25 04:17:52;;;;;;;3.20;2.70;;;;;;;5.86;65.68;94508.75;4172123;28;20053;-55
2022/11/25 04:19:53;;;;;;;3.30;2.60;;;;;;;5.73;66.20;94515.03;4168095;28;20072;-56
2022/11/25 04:21:58;;;;;;;4.38;2.72;;;;;;;5.75;65.91;94510.50;4174586;28;20139;-56
2022/11/25 04:24:00;;;;;;;3.20;2.30;;;;;;;5.68;66.33;94509.41;4172637;28;20137;-55
2022/11/25 04:26:01;;;;;;;3.05;2.10;;;;;;;5.70;65.89;94504.91;4168888;28;20053;-54
2022/11/25 04:28:04;;;;;;;3.47;2.25;;;;;;;5.70;66.21;94504.06;4167208;28;20051;-56
2022/11/25 04:30:06;;;;;;;3.33;2.30;;;;;;;5.72;66.25;94513.38;4175322;28;20048;-55
2022/11/25 04:32:08;;;;;;;3.78;2.08;;;;;;;5.75;65.77;94520.09;4173609;28;20432;-56
2022/11/25 04:34:10;;;;;;;2.88;2.08;;;;;;;5.77;65.61;94519.97;4169209;28;20125;-54
2022/11/25 04:36:11;;;;;;;3.05;2.10;;;;;;;5.83;65.69;94517.66;4160234;28;20064;-56
2022/11/25 04:38:13;;;;;;;2.45;1.73;;;;;;;5.74;65.63;94519.28;4152165;28;20049;-56
2022/11/25 04:40:15;;;;;;;3.75;2.38;;;;;;;5.78;65.94;94521.59;4147209;28;20450;-55
2022/11/25 04:42:33;;;;;;;2.38;2.00;;;;;;;5.82;65.90;94517.78;4169924;28;20052;-54
2022/11/25 04:44:34;;;;;;;3.00;2.03;;;;;;;5.70;66.36;94530.91;4150714;28;20057;-53
2022/11/25 04:46:39;;;;;;;3.40;2.50;;;;;;;5.73;65.97;94535.81;4159949;28;20057;-56
2022/11/25 04:48:40;;;;;;;3.40;2.50;;;;;;;5.78;65.98;94532.00;4150164;28;20085;-53
2022/11/25 04:50:43;;;;;;;3.83;2.30;;;;;;;5.82;65.51;94535.97;4169460;28;20465;-56
2022/11/25 04:52:44;;;;;;;3.45;2.35;;;;;;;5.88;65.75;94533.66;4179513;28;20133;-55
2022/11/25 04:54:46;;;;;;;2.90;2.13;;;;;;;5.84;65.30;94539.25;4152736;28;20047;-56
2022/11/25 04:56:48;;;;;;;3.38;2.40;;;;;;;5.86;65.37;94543.38;4179368;28;20053;-56
2022/11/25 05:01:10;;;;;;;3.33;2.35;;;;;;;5.87;65.33;94554.59;4169620;28;20053;-53
2022/11/25 05:03:11;;;;;;;3.72;2.03;;;;;;;5.87;65.13;94562.38;4159269;28;20140;-55
2022/11/25 05:05:13;;;;;;;3.72;2.00;;;;;;;5.84;64.92;94563.47;4156214;28;20045;-56
2022/11/25 05:07:17;;;;;;;2.53;1.98;;;;;;;5.88;64.90;94569.25;4166013;28;20064;-54
2022/11/25 05:09:19;;;;;;;;;;;;;;;5.90;64.64;94562.94;4162825;28;20049;-58
2022/11/25 05:11:20;;;;;;;2.90;2.30;;;;;;;5.97;64.26;94573.66;4167170;28;20218;-57
2022/11/25 05:13:22;;;;;;;3.15;2.17;;;;;;;5.97;64.50;94584.06;4147745;28;20546;-57
2022/11/25 05:15:24;;;;;;;3.13;2.25;;;;;;;5.98;64.49;94579.66;4160798;28;20069;-54
2022/11/25 05:17:28;;;;;;;3.80;2.50;;;;;;;6.00;64.03;94583.81;4155949;28;20050;-57
2022/11/25 05:19:30;;;;;;;2.53;1.90;;;;;;;6.00;64.59;94593.38;4154088;28;20156;-56
2022/11/25 05:21:32;;;;;;;3.03;2.25;;;;;;;6.01;64.14;94593.25;4158664;28;20076;-55
2022/11/25 05:23:33;;;;;;;3.20;2.20;;;;;;;6.09;63.70;94601.19;4165789;28;20081;-56
2022/11/25 05:25:35;;;;;;;3.53;2.22;;;;;;;6.08;63.48;94598.72;4167929;28;20053;-57
2022/11/25 05:27:37;;;;;;;2.65;2.20;;;;;;;6.01;63.62;94611.44;4164054;28;20274;-56
2022/11/25 05:29:38;;;;;;;2.85;2.10;;;;;;;5.95;63.42;94609.38;4147496;28;20045;-57
2022/11/25 05:31:40;;;;;;;2.78;1.90;;;;;;;5.91;63.46;94619.16;4151659;28;20081;-55
2022/11/25 05:33:42;;;;;;;2.88;1.70;;;;;;;5.97;63.64;94614.44;4161962;28;20095;-57
2022/11/25 05:35:43;;;;;;;3.00;1.95;;;;;;;5.99;63.27;94610.75;4167987;28;20464;-57
2022/11/25 05:37:45;;;;;;;2.90;2.00;;;;;;;6.01;63.35;94621.03;4170034;28;20068;-57
2022/11/25 05:39:47;;;;;;;6.05;2.30;;;;;;;6.07;63.14;94626.53;4150266;28;20135;-57
2022/11/25 05:41:48;;;;;;;4.50;2.65;;;;;;;6.17;63.22;94625.72;4174001;28;20089;-56
2022/11/25 05:43:50;;;;;;;2.75;2.10;;;;;;;6.09;62.45;94637.63;4160201;28;20117;-56
2022/11/25 05:45:52;;;;;;;3.13;2.03;;;;;;;6.05;62.81;94632.81;4156530;28;20053;-57
2022/11/25 05:47:54;;;;;;;3.33;2.22;;;;;;;6.09;62.86;94648.00;4155949;28;20057;-57
2022/11/25 05:49:55;;;;;;;3.78;2.40;;;;;;;6.12;62.67;94645.13;4163559;28;20136;-53
2022/11/25 05:51:57;;;;;;;4.85;2.42;;;;;;;6.05;62.32;94649.22;4161772;28;20046;-57
2022/11/25 05:53:59;;;;;;;3.38;2.53;;;;;;;6.03;62.58;94647.72;4155454;28;20050;-57
2022/11/25 05:56:03;;;;;;;3.22;2.50;;;;;;;6.15;62.21;94646.63;4156487;28;20081;-55
2022/11/25 05:58:05;;;;;;;6.57;2.50;;;;;;;6.19;62.06;94647.22;4160402;28;20588;-57
2022/11/25 06:00:07;;;;;;;4.22;2.22;;;;;;;6.12;61.64;94642.53;4150127;28;20140;-54
2022/11/25 06:02:09;;;;;;;3.45;2.47;;;;;;;6.08;61.90;94651.56;4154516;28;20065;-57
2022/11/25 06:04:10;;;;;;;3.00;2.20;;;;;;;6.13;61.43;94649.41;4152587;28;20063;-55
2022/11/25 06:06:12;;;;;;;3.67;2.40;;;;;;;6.26;61.08;94653.50;4153216;28;20049;-56
2022/11/25 06:08:14;;;;;;;2.90;2.10;;;;;;;6.28;61.13;94659.41;4154426;28;20135;-58
2022/11/25 06:10:16;;;;;;;2.97;2.47;;;;;;;6.22;61.13;94663.38;4170309;28;20061;-53
2022/11/25 06:12:20;;;;;;;3.17;2.60;;;;;;;6.26;61.28;94656.97;4158207;28;20217;-54
2022/11/25 06:14:22;;;;;;;;;;;;;;;6.31;60.50;94662.56;4148381;28;20527;-53
2022/11/25 06:16:24;;;;;;;3.33;2.28;;;;;;;6.19;60.68;94663.63;4162670;28;20380;-54
2022/11/25 06:18:26;;;;;;;7.53;2.38;;;;;;;6.25;60.97;94665.69;4154148;28;20058;-55
2022/11/25 06:20:27;;;;;;;5.18;2.42;;;;;;;6.26;61.17;94676.91;4149527;28;20049;-54
2022/11/25 06:22:29;;;;;;;2.88;2.05;;;;;;;6.23;61.00;94692.81;4161796;28;20452;-55
2022/11/25 06:24:31;;;;;;;4.97;2.35;;;;;;;6.18;60.89;94679.41;4154959;28;20138;-56
2022/11/25 06:26:32;;;;;;;4.32;2.40;;;;;;;6.19;60.83;94681.03;4156082;28;20081;-57
2022/11/25 06:28:34;;;;;;;3.45;2.30;;;;;;;6.12;60.93;94689.34;4160478;28;20056;-57
2022/11/25 06:30:36;;;;;;;2.92;2.25;;;;;;;6.25;60.55;94683.91;4149079;28;20355;-55
2022/11/25 06:32:37;;;;;;;3.08;2.40;;;;;;;6.21;60.44;94692.13;4155075;28;20092;-57
2022/11/25 06:34:41;;;;;;;4.07;2.60;;;;;;;6.22;60.53;94689.41;4154766;28;20493;-56
2022/11/25 06:36:43;;;;;;;4.13;2.95;;;;;;;6.26;60.21;94705.53;4174327;28;20494;-57
2022/11/25 06:38:53;;;;;;;3.40;2.53;;;;;;;6.22;60.30;94699.81;4164721;28;20110;-57
2022/11/25 06:40:59;;;;;;;3.90;2.80;;;;;;;6.22;60.33;94696.38;4165234;28;20056;-56
2022/11/25 06:43:02;;;;;;;5.00;2.85;;;;;;;6.26;60.59;94702.94;4152749;28;20073;-59
2022/11/25 06:45:05;;;;;;;4.65;3.00;;;;;;;6.36;60.43;94709.00;4144454;28;20103;-54
2022/11/25 06:47:06;;;;;;;4.70;3.33;;;;;;;6.35;60.58;94707.38;4145107;28;20112;-55
2022/11/25 06:49:08;;;;;;;3.70;3.00;;;;;;;6.39;60.71;94703.53;4152254;28;20081;-56
2022/11/25 06:51:11;;;;;;;3.55;2.60;;;;;;;6.44;60.40;94714.38;4151386;28;20494;-59
2022/11/25 06:53:13;;;;;;;4.97;3.20;;;;;;;6.40;60.22;94717.38;4158387;28;20548;-56
2022/11/25 06:55:20;;;;;;;5.70;3.17;;;;;;;6.27;61.12;94715.00;4161432;28;20053;-57
2022/11/25 06:57:22;;;;;;;4.45;3.33;;;;;;;6.35;60.67;94702.97;4161688;28;20049;-59
2022/11/25 06:59:23;;;;;;;5.78;3.00;;;;;;;6.40;60.44;94714.78;4148587;28;20417;-56
2022/11/25 07:01:27;;;;;;;6.22;3.50;;;;;;;6.50;60.34;94721.66;4147768;28;20045;-58
2022/11/25 07:03:28;;;;;;;5.00;3.45;;;;;;;6.46;60.16;94715.06;4161725;28;20397;-54
2022/11/25 07:05:30;;;;;;;3.55;2.90;;;;;;;6.46;60.45;94714.25;4151502;28;20138;-55
2022/11/25 07:07:32;;;;;;;4.47;2.92;;;;;;;6.50;59.84;94721.66;4157215;28;20480;-54
2022/11/25 07:09:34;;;;;;;5.05;3.00;;;;;;;6.57;59.90;94720.16;4146921;28;20065;-55
2022/11/25 07:11:40;;;;;;;4.00;2.95;;;;;;;6.59;59.90;94737.41;4153456;28;20411;-54
2022/11/25 07:13:41;;;;;;;3.75;2.92;;;;;;;6.65;59.55;94726.47;4158498;28;20224;-55
2022/11/25 07:15:43;;;;;;;5.60;2.80;;;;;;;6.57;59.84;94724.53;4159874;28;20057;-53
2022/11/25 07:17:45;;;;;;;3.83;2.83;;;;;;;6.55;59.81;94719.44;4147408;28;20049;-54
2022/11/25 07:19:46;;;;;;;3.65;2.85;;;;;;;6.56;60.35;94728.94;4152712;28;20042;-54
2022/11/25 07:21:48;;;;;;;5.10;3.30;;;;;;;6.56;59.83;94728.09;4156297;28;20045;-57
2022/11/25 07:23:51;;;;;;;5.45;3.72;;;;;;;6.59;59.91;94743.44;4161108;28;20053;-58
2022/11/25 07:25:53;;;;;;;3.33;2.67;;;;;;;6.64;59.76;94743.84;4161113;28;20433;-56
2022/11/25 07:27:54;;;;;;;3.83;2.90;;;;;;;6.69;59.66;94733.03;4160930;28;20068;-56
2022/11/25 07:29:56;;;;;;;5.97;3.20;;;;;;;6.75;59.40;94745.53;4159744;28;20064;-56
2022/11/25 07:32:17;;;;;;;5.22;3.65;;;;;;;6.76;59.89;94747.19;4145211;28;20128;-55
2022/11/25 07:34:20;;;;;;;5.18;3.90;;;;;;;6.77;59.44;94741.00;4153050;28;20053;-57
2022/11/25 07:36:22;;;;;;;4.95;3.13;;;;;;;6.68;59.61;94734.81;4171022;28;20480;-58
2022/11/25 07:38:24;;;;;;;6.47;3.80;;;;;;;6.66;59.24;94741.13;4167712;28;20448;-62
2022/11/25 07:40:25;;;;;;;4.63;3.10;;;;;;;6.61;59.71;94741.53;4174286;28;20053;-56
2022/11/25 07:42:27;;;;;;;5.07;3.85;;;;;;;6.52;59.54;94742.34;4160775;28;20061;-55
2022/11/25 07:44:29;;;;;;;5.00;3.20;;;;;;;6.60;59.75;94752.88;4158802;28;20159;-57
2022/11/25 07:46:33;;;;;;;5.72;3.47;;;;;;;6.80;59.30;94752.91;4148193;28;20045;-56
2022/11/25 07:48:35;;;;;;;4.25;3.58;;;;;;;6.91;58.67;94745.81;4157389;28;20054;-57
2022/11/25 07:50:37;;;;;;;6.90;3.55;;;;;;;7.04;58.42;94749.97;4149751;28;20057;-55
2022/11/25 07:52:39;;;;;;;3.88;2.83;;;;;;;6.96;57.79;94751.44;4151351;28;20046;-55
2022/11/25 07:54:41;;;;;;;5.32;3.45;;;;;;;7.05;57.37;94756.81;4144231;28;20502;-57
2022/11/25 07:56:47;;;;;;;4.85;2.90;;;;;;;7.15;57.33;94760.25;4144469;28;20054;-55
2022/11/25 07:58:49;;;;;;;5.20;3.22;;;;;;;7.20;57.09;94760.66;4150052;28;20077;-59
2022/11/25 08:00:50;;;;;;;8.45;3.28;;;;;;;7.22;56.65;94763.94;4160614;28;20045;-56
2022/11/25 08:02:52;;;;;;;4.38;3.05;;;;;;;7.19;56.78;94753.81;4174077;28;20482;-56
2022/11/25 08:04:54;;;;;;;5.18;3.88;;;;;;;7.20;57.31;94755.44;4176705;28;20052;-54
2022/11/25 08:06:56;;;;;;;5.82;3.40;;;;;;;7.22;57.20;94757.91;4176996;28;20068;-54
2022/11/25 08:08:57;;;;;;;5.10;3.50;;;;;;;6.92;57.48;94760.47;4176545;28;20164;-56
2022/11/25 08:10:59;;;;;;;5.38;3.78;;;;;;;6.87;58.62;94770.50;4167913;28;20084;-55
2022/11/25 08:13:01;;;;;;;4.60;3.65;;;;;;;6.93;57.82;94769.97;4176095;28;20092;-56
2022/11/25 08:15:03;;;;;;;7.53;3.67;;;;;;;7.06;58.01;94761.06;4175996;28;20084;-53
2022/11/25 08:17:04;;;;;;;5.70;2.92;;;;;;;7.33;57.08;94760.38;4176653;28;20132;-55
2022/11/25 08:19:10;;;;;;;5.78;3.88;;;;;;;7.32;56.97;94763.94;4159203;28;20517;-55
2022/11/25 08:21:13;;;;;;;5.57;4.13;;;;;;;7.11;56.78;94772.72;4144584;28;20057;-56
2022/11/25 08:23:15;;;;;;;9.00;4.07;;;;;;;6.95;57.50;94772.44;4147216;28;20437;-52
2022/11/25 08:25:16;;;;;;;4.72;3.70;;;;;;;7.02;57.59;94773.53;4160675;28;20155;-57
2022/11/25 08:27:18;;;;;;;6.68;4.90;;;;;;;7.13;56.98;94765.59;4147623;28;20046;-54
2022/11/25 08:29:20;;;;;;;7.13;3.88;;;;;;;7.14;57.43;94777.66;4146640;28;20061;-57
2022/11/25 08:31:27;;;;;;;6.05;3.90;;;;;;;7.29;57.32;94772.88;4148067;28;20414;-56
2022/11/25 08:33:29;;;;;;;5.97;4.68;;;;;;;7.32;57.56;94771.78;4161078;28;20210;-57
2022/11/25 08:35:31;;;;;;;6.78;4.25;;;;;;;7.41;57.61;94781.34;4167212;28;20102;-58
2022/11/25 08:37:33;;;;;;;8.30;4.22;;;;;;;7.29;57.69;94777.25;4175561;28;20049;-59
2022/11/25 08:39:35;;;;;;;6.57;3.80;;;;;;;7.11;57.91;94774.50;4168129;28;20516;-56
2022/11/25 08:41:52;;;;;;;5.25;3.50;;;;;;;7.04;57.36;94781.22;4163254;28;20045;-56
2022/11/25 08:43:55;;;;;;;4.68;3.55;;;;;;;7.08;56.99;94786.00;4178149;28;20053;-56
2022/11/25 08:45:56;;;;;;;4.90;3.15;;;;;;;7.32;56.69;94780.41;4179694;28;20150;-55
2022/11/25 08:47:58;;;;;;;4.53;3.38;;;;;;;7.34;56.78;94762.03;4179744;28;20080;-52
2022/11/25 08:49:59;;;;;;;5.00;3.60;;;;;;;7.38;56.93;94774.66;4178887;28;20092;-55
2022/11/25 08:52:01;;;;;;;6.03;4.07;;;;;;;7.63;55.94;94775.03;4163805;28;20073;-53
2022/11/25 08:54:05;;;;;;;9.45;5.90;;;;;;;7.64;56.19;94787.13;4156066;28;20131;-58
2022/11/25 08:56:07;;;;;;;8.52;4.30;;;;;;;7.56;56.11;94781.78;4152269;28;20506;-58
2022/11/25 08:58:11;;;;;;;7.20;4.32;;;;;;;7.17;57.47;94786.97;4168415;28;20049;-55
2022/11/25 09:00:14;;;;;;;10.00;5.95;;;;;;;6.92;58.47;94783.09;4164169;28;20393;-54
2022/11/25 09:02:16;;;;;;;6.50;4.72;;;;;;;7.18;57.52;94789.47;4155115;28;20069;-54
2022/11/25 09:04:18;;;;;;;6.07;3.80;;;;;;;7.42;57.27;94785.63;4159189;28;20561;-55
2022/11/25 09:06:20;;;;;;;4.13;3.53;;;;;;;7.46;57.10;94780.94;4160966;28;20384;-56
2022/11/25 09:08:22;;;;;;;5.20;3.72;;;;;;;7.51;56.98;94782.19;4147265;28;20560;-56
2022/11/25 09:10:24;;;;;;;7.45;4.40;;;;;;;7.69;56.83;94784.91;4155699;28;20080;-57
2022/11/25 09:12:25;;;;;;;6.20;4.20;;;;;;;7.78;56.59;94775.41;4160212;28;20046;-53
2022/11/25 09:14:27;;;;;;;6.82;4.82;;;;;;;7.85;56.02;94780.91;4161561;28;20357;-55
2022/11/25 09:16:29;;;;;;;5.53;3.90;;;;;;;7.71;56.09;94790.81;4163240;28;20049;-54
2022/11/25 09:18:31;;;;;;;5.28;4.05;;;;;;;7.66;56.38;94779.97;4156370;28;20080;-56
2022/11/25 09:20:33;;;;;;;8.55;4.78;;;;;;;7.70;56.68;94786.56;4160790;28;20104;-55
2022/11/25 09:22:35;;;;;;;7.65;4.47;;;;;;;7.73;56.38;94783.66;4159231;28;20038;-58
2022/11/25 09:24:37;;;;;;;6.97;3.85;;;;;;;7.77;56.58;94772.00;4154026;28;20049;-53
2022/11/25 09:26:39;;;;;;;8.57;4.45;;;;;;;7.69;56.33;94799.75;4162927;28;20061;-56
2022/11/25 09:28:41;;;;;;;7.10;5.10;;;;;;;7.67;56.75;94786.81;4159551;28;20054;-57
2022/11/25 09:30:43;;;;;;;7.90;4.40;;;;;;;7.82;56.58;94789.00;4151652;28;20478;-53
2022/11/25 09:32:47;;;;;;;6.53;4.60;;;;;;;7.92;56.54;94784.59;4161753;28;20600;-56
2022/11/25 09:34:49;;;;;;;4.82;3.40;;;;;;;8.15;55.71;94772.88;4161673;28;20049;-56
2022/11/25 09:36:51;;;;;;;4.55;3.30;;;;;;;8.23;55.06;94787.00;4148082;28;20060;-57
2022/11/25 09:38:52;;;;;;;5.70;3.70;;;;;;;8.33;55.23;94772.94;4150098;28;20132;-55
2022/11/25 09:41:01;;;;;;;5.50;3.38;;;;;;;8.45;54.83;94789.25;4160592;28;20107;-54
2022/11/25 09:48:23;;;;;;;6.35;4.07;;;;;;;8.49;54.90;94780.19;4177923;28;20551;-58
2022/11/25 09:50:43;;;;;;;6.88;4.05;;;;;;;8.78;53.67;94774.81;4150319;28;20046;-55
2022/11/25 09:52:56;;;;;;;7.10;4.40;;;;;;;8.82;53.03;94791.84;4162282;28;20064;-54
2022/11/25 09:55:22;;;;;;;5.93;4.22;;;;;;;8.28;54.22;94785.59;4174269;28;20143;-57
2022/11/25 09:57:47;;;;;;;6.32;3.92;;;;;;;8.35;54.59;94778.03;4178135;28;20057;-58
2022/11/25 10:00:10;;;;;;;7.20;3.85;;;;;;;8.16;54.15;94790.16;4175586;28;20441;-56